Time;durP1;ratioP1;P1;durP2;ratioP2;P2;SDS_P1;SDS_P2;PMS_P1;PMS_P2;Temp;Humidity;BMP_temperature;BMP_pressure;BME280_temperature;BME280_humidity;BME280_pressure;Samples;Min_cycle;Max_cycle;Signal;HPM_P1;HPM_P2
2023/10/08 00:00:49;;;;;;;;;;;;;;;16.73;91.61;102211.69;5045093;28;1941;-78
2023/10/08 00:03:17;;;;;;;;;;;;;;;16.72;91.74;102215.28;5045301;28;1011;-78
2023/10/08 00:05:42;;;;;;;;;;;;;;;16.70;91.71;102217.19;5041692;28;1086;-77
2023/10/08 00:08:11;;;;;;;;;;;;;;;16.70;91.99;102206.72;5044228;28;1163;-78
2023/10/08 00:10:39;;;;;;;;;;;;;;;16.68;91.53;102213.84;5033738;28;1239;-78
2023/10/08 00:13:07;;;;;;;;;;;;;;;16.66;91.85;102205.31;5047274;28;1066;-78
2023/10/08 00:15:32;;;;;;;;;;;;;;;16.64;92.21;102204.63;5027794;28;1310;-78
2023/10/08 00:18:00;;;;;;;;;;;;;;;16.61;92.31;102200.44;5043022;28;1071;-78
2023/10/08 00:20:28;;;;;;;;;;;;;;;16.59;92.36;102210.25;5042223;28;1967;-78
2023/10/08 00:22:56;;;;;;;;;;;;;;;16.56;92.56;102204.41;5042848;28;1123;-78
2023/10/08 00:25:21;;;;;;;;;;;;;;;16.53;92.65;102200.28;5044939;28;1128;-78
2023/10/08 00:27:50;;;;;;;;;;;;;;;16.50;92.88;102211.00;5050742;28;1139;-78
2023/10/08 00:30:17;;;;;;;;;;;;;;;16.49;93.01;102219.00;5040975;28;1222;-78
2023/10/08 00:32:43;;;;;;;;;;;;;;;16.46;92.84;102223.56;5050880;28;1163;-79
2023/10/08 00:35:13;;;;;;;;;;;;;;;16.42;93.02;102224.75;5029572;28;1459;-77
2023/10/08 00:37:39;;;;;;;;;;;;;;;16.42;93.40;102218.69;5039449;28;1308;-78
2023/10/08 00:40:11;;;;;;;;;;;;;;;16.41;93.52;102223.09;5050828;28;1973;-78
2023/10/08 00:42:37;;;;;;;;;;;;;;;16.50;93.47;102225.91;5052838;28;1145;-78
2023/10/08 00:45:04;;;;;;;;;;;;;;;16.32;93.76;102231.72;5028728;28;1303;-78
2023/10/08 00:47:34;;;;;;;;;;;;;;;16.32;94.27;102234.34;5055614;28;1183;-77
2023/10/08 00:50:05;;;;;;;;;;;;;;;16.30;94.17;102231.03;5043191;28;976;-78
2023/10/08 00:52:38;;;;;;;;;;;;;;;16.27;94.31;102230.44;5032369;28;1487;-77
2023/10/08 00:57:29;;;;;;;;;;;;;;;16.29;94.00;102218.91;5049209;28;987;-78
2023/10/08 00:59:57;;;;;;;;;;;;;;;16.28;93.92;102227.69;5048733;28;1990;-77
2023/10/08 01:02:25;;;;;;;;;;;;;;;16.28;94.36;102227.69;5051980;28;965;-78
2023/10/08 01:04:51;;;;;;;;;;;;;;;16.28;94.47;102211.97;5046490;28;1210;-78
2023/10/08 01:07:18;;;;;;;;;;;;;;;16.29;94.34;102218.06;5027406;28;1211;-78
2023/10/08 01:09:49;;;;;;;;;;;;;;;16.28;94.55;102205.91;5050144;28;1158;-78
2023/10/08 01:14:49;;;;;;;;;;;;;;;16.24;94.34;102205.34;5048457;28;1210;-78
2023/10/08 01:17:16;;;;;;;;;;;;;;;16.22;94.52;102195.97;5050806;28;1025;-78
2023/10/08 01:19:45;;;;;;;;;;;;;;;16.19;94.65;102176.94;5050711;28;1890;-79
2023/10/08 01:22:18;;;;;;;;;;;;;;;16.19;95.17;102176.13;5042608;28;1130;-78
2023/10/08 01:24:44;;;;;;;;;;;;;;;16.16;94.97;102176.34;5048097;28;1161;-78
2023/10/08 01:27:11;;;;;;;;;;;;;;;16.12;95.34;102190.69;5052944;28;1149;-79
2023/10/08 01:29:37;;;;;;;;;;;;;;;16.11;94.95;102196.84;5044572;28;1339;-79
2023/10/08 01:32:03;;;;;;;;;;;;;;;16.08;95.46;102203.19;5045693;28;1193;-78
2023/10/08 01:34:30;;;;;;;;;;;;;;;16.08;95.10;102205.81;5036053;28;1350;-78
2023/10/08 01:37:00;;;;;;;;;;;;;;;16.08;95.48;102204.97;5056335;28;1183;-78
2023/10/08 01:39:26;;;;;;;;;;;;;;;16.06;95.59;102197.25;5046983;28;1965;-78
2023/10/08 01:41:51;;;;;;;;;;;;;;;16.04;95.59;102187.84;5044037;28;1154;-78
2023/10/08 01:44:16;;;;;;;;;;;;;;;16.01;95.41;102195.97;5034693;28;1428;-78
2023/10/08 01:46:42;;;;;;;;;;;;;;;15.98;95.81;102198.84;5035337;28;1328;-78
2023/10/08 01:49:14;;;;;;;;;;;;;;;15.96;95.93;102206.00;5045572;28;1257;-79
2023/10/08 01:51:46;;;;;;;;;;;;;;;15.92;96.36;102203.63;5050058;28;989;-80
2023/10/08 01:54:12;;;;;;;;;;;;;;;15.91;96.17;102209.81;5032186;28;1275;-78
2023/10/08 01:56:44;;;;;;;;;;;;;;;15.90;96.17;102208.16;5049532;28;1271;-78
2023/10/08 01:59:14;;;;;;;;;;;;;;;15.88;96.20;102202.19;5026609;28;1905;-78
2023/10/08 02:01:42;;;;;;;;;;;;;;;15.87;96.58;102194.47;5047277;28;1175;-78
2023/10/08 02:04:09;;;;;;;;;;;;;;;15.84;96.70;102194.75;5033142;28;1067;-77
2023/10/08 02:06:35;;;;;;;;;;;;;;;15.84;96.95;102207.84;5033708;28;1256;-79
2023/10/08 02:09:07;;;;;;;;;;;;;;;15.84;96.67;102226.97;5035631;28;1248;-78
2023/10/08 02:11:40;;;;;;;;;;;;;;;15.83;96.63;102217.47;5048878;28;982;-77
2023/10/08 02:14:06;;;;;;;;;;;;;;;15.83;96.77;102217.47;5052513;28;1203;-78
2023/10/08 02:16:33;;;;;;;;;;;;;;;15.83;97.04;102233.16;5043737;28;1176;-77
2023/10/08 02:18:58;;;;;;;;;;;;;;;15.83;96.76;102233.16;5034154;28;1894;-78
2023/10/08 02:21:25;;;;;;;;;;;;;;;15.82;97.13;102234.09;5052326;28;1027;-78
2023/10/08 02:23:50;;;;;;;;;;;;;;;15.80;97.37;102224.72;5033217;28;1308;-77
2023/10/08 02:26:15;;;;;;;;;;;;;;;15.79;97.48;102236.97;5050470;28;1145;-79
2023/10/08 02:28:41;;;;;;;;;;;;;;;15.77;97.54;102238.03;5046346;28;1164;-77
2023/10/08 02:31:08;;;;;;;;;;;;;;;15.73;97.34;102231.41;5045353;28;1157;-78
2023/10/08 02:33:34;;;;;;;;;;;;;;;15.72;97.26;102243.66;5048817;28;1217;-78
2023/10/08 02:36:01;;;;;;;;;;;;;;;15.71;97.65;102249.84;5026595;28;1195;-78
2023/10/08 02:38:28;;;;;;;;;;;;;;;15.70;97.24;102250.78;5045097;28;1200;-78
2023/10/08 02:40:56;;;;;;;;;;;;;;;15.69;97.74;102256.16;5044559;28;1976;-77
2023/10/08 02:43:21;;;;;;;;;;;;;;;15.69;97.46;102261.38;5054654;28;1094;-79
2023/10/08 02:45:50;;;;;;;;;;;;;;;15.68;97.92;102262.34;5038488;28;1417;-78
2023/10/08 02:48:15;;;;;;;;;;;;;;;15.70;97.84;102258.63;5030271;28;1380;-78
2023/10/08 02:50:41;;;;;;;;;;;;;;;15.69;97.82;102243.91;5053849;28;1190;-79
2023/10/08 02:53:17;;;;;;;;;;;;;;;15.70;98.19;102222.03;5049311;28;1632;-79
2023/10/08 02:55:44;;;;;;;;;;;;;;;15.71;97.65;102236.75;5034967;28;1386;-78
2023/10/08 02:58:21;;;;;;;;;;;;;;;15.69;97.52;102236.06;5049918;28;1315;-78
2023/10/08 03:00:47;;;;;;;;;;;;;;;15.69;97.89;102256.97;5053325;28;1898;-78
2023/10/08 03:03:15;;;;;;;;;;;;;;;15.65;97.71;102239.88;5050500;28;1263;-78
2023/10/08 03:05:41;;;;;;;;;;;;;;;15.64;97.91;102246.88;5049068;28;1205;-78
2023/10/08 03:08:10;;;;;;;;;;;;;;;15.62;97.78;102230.50;5046019;28;1351;-78
2023/10/08 03:10:35;;;;;;;;;;;;;;;15.59;97.65;102241.16;5050405;28;1216;-78
2023/10/08 03:13:04;;;;;;;;;;;;;;;15.56;97.66;102277.19;5045325;28;1142;-78
2023/10/08 03:15:31;;;;;;;;;;;;;;;15.51;97.79;102263.66;5030815;28;1186;-78
2023/10/08 03:18:08;;;;;;;;;;;;;;;15.48;97.89;102242.97;5046074;28;1288;-78
2023/10/08 03:23:51;;;;;;;;;;;;;;;15.46;97.87;102243.09;5049475;28;1337;-77
2023/10/08 03:26:01;;;;;;;;;;;;;;;15.41;98.25;102243.47;5038419;28;1204;-79
2023/10/08 03:28:34;;;;;;;;;;;;;;;15.40;98.42;102252.25;5029446;28;1220;-77
2023/10/08 03:31:13;;;;;;;;;;;;;;;15.36;98.63;102263.06;5040895;28;1212;-78
2023/10/08 03:33:39;;;;;;;;;;;;;;;15.36;98.38;102261.28;5031790;28;1217;-78
2023/10/08 03:36:20;;;;;;;;;;;;;;;15.34;98.54;102271.06;5024858;28;1313;-78
2023/10/08 03:38:50;;;;;;;;;;;;;;;15.34;98.54;102278.88;5039193;28;1910;-77
2023/10/08 03:41:16;;;;;;;;;;;;;;;15.31;98.60;102283.53;5043117;28;1388;-78
2023/10/08 03:43:53;;;;;;;;;;;;;;;15.31;98.54;102268.69;5040906;28;1181;-78
2023/10/08 03:46:21;;;;;;;;;;;;;;;15.33;98.87;102258.94;5041399;28;1228;-79
2023/10/08 03:48:46;;;;;;;;;;;;;;;15.30;98.58;102261.78;5040963;28;1102;-77
2023/10/08 03:51:12;;;;;;;;;;;;;;;15.29;98.60;102257.50;5024470;28;1200;-78
2023/10/08 03:53:58;;;;;;;;;;;;;;;15.26;98.99;102255.16;5031102;28;1477;-79
2023/10/08 03:56:29;;;;;;;;;;;;;;;15.26;99.18;102255.16;5040563;28;1133;-79
2023/10/08 03:58:55;;;;;;;;;;;;;;;15.25;99.47;102253.47;5043811;28;1898;-77
2023/10/08 04:01:21;;;;;;;;;;;;;;;15.22;98.96;102264.19;5040557;28;1357;-77
2023/10/08 04:14:16;;;;;;;;;;;;;;;15.18;99.64;102298.50;5048641;28;986;-78
2023/10/08 04:16:41;;;;;;;;;;;;;;;15.17;99.68;102302.91;5047602;28;1131;-78
2023/10/08 04:19:07;;;;;;;;;;;;;;;15.14;99.47;102304.00;5049312;28;1973;-77
2023/10/08 04:21:33;;;;;;;;;;;;;;;15.14;99.72;102304.00;5045371;28;1112;-78
2023/10/08 04:24:08;;;;;;;;;;;;;;;15.16;99.64;102311.69;5052440;28;1139;-78
2023/10/08 04:26:33;;;;;;;;;;;;;;;15.15;100.00;102320.50;5047664;28;1008;-77
2023/10/08 04:29:02;;;;;;;;;;;;;;;15.17;100.00;102323.81;5050809;28;1057;-78
2023/10/08 04:31:28;;;;;;;;;;;;;;;15.16;99.94;102343.06;5050005;28;1223;-77
2023/10/08 04:33:54;;;;;;;;;;;;;;;15.18;100.00;102338.53;5048120;28;1255;-78
2023/10/08 04:36:19;;;;;;;;;;;;;;;15.15;100.00;102333.56;5034363;28;1265;-78
2023/10/08 04:38:47;;;;;;;;;;;;;;;15.17;99.89;102339.50;5048744;28;1982;-78
2023/10/08 04:41:14;;;;;;;;;;;;;;;15.19;100.00;102341.97;5047690;28;1207;-77
2023/10/08 04:43:42;;;;;;;;;;;;;;;15.17;100.00;102339.50;5041611;28;1099;-78
2023/10/08 04:46:33;;;;;;;;;;;;;;;15.18;100.00;102330.69;5060183;28;1069;-77
2023/10/08 04:48:59;;;;;;;;;;;;;;;15.15;100.00;102336.19;5057457;28;1285;-78
2023/10/08 04:51:24;;;;;;;;;;;;;;;15.16;100.00;102332.59;5037836;28;1191;-77
2023/10/08 04:53:49;;;;;;;;;;;;;;;15.15;100.00;102330.94;5059637;28;1181;-78
2023/10/08 04:56:17;;;;;;;;;;;;;;;15.13;100.00;102344.13;5055792;28;1118;-78
2023/10/08 04:58:47;;;;;;;;;;;;;;;15.12;100.00;102337.22;5040536;28;1898;-79
2023/10/08 05:01:27;;;;;;;;;;;;;;;15.12;100.00;102320.72;5031875;28;1345;-78
2023/10/08 05:25:08;;;;;;;;;;;;;;;15.06;100.00;102331.66;5049698;28;1148;-77
2023/10/08 05:52:25;;;;;;;;;;;;;;;14.97;100.00;102332.38;5051257;28;1274;-77
2023/10/08 05:54:36;;;;;;;;;;;;;;;14.94;100.00;102343.88;5045664;28;1277;-77
2023/10/08 06:03:09;;;;;;;;;;;;;;;14.91;100.00;102343.25;5045765;28;1328;-77
2023/10/08 06:08:10;;;;;;;;;;;;;;;14.88;100.00;102350.38;5049563;28;1039;-77
2023/10/08 06:13:26;;;;;;;;;;;;;;;14.83;100.00;102352.50;5043656;28;1010;-80
2023/10/08 06:18:25;;;;;;;;;;;;;;;14.86;100.00;102356.69;5051269;28;1070;-78
2023/10/08 06:20:54;;;;;;;;;;;;;;;14.84;100.00;102356.78;5048704;28;1886;-78
2023/10/08 06:23:20;;;;;;;;;;;;;;;14.84;100.00;102359.38;5033376;28;1250;-78
2023/10/08 06:25:46;;;;;;;;;;;;;;;14.85;100.00;102368.91;5052827;28;1274;-78
2023/10/08 06:28:12;;;;;;;;;;;;;;;14.85;100.00;102366.31;5037473;28;1282;-77
2023/10/08 06:30:40;;;;;;;;;;;;;;;14.86;100.00;102362.75;5041609;28;1487;-77
2023/10/08 06:33:06;;;;;;;;;;;;;;;14.86;100.00;102373.19;5047578;28;1126;-78
2023/10/08 06:35:32;;;;;;;;;;;;;;;14.90;100.00;102393.84;5029396;28;1288;-79
2023/10/08 06:38:00;;;;;;;;;;;;;;;14.87;100.00;102415.81;5047008;28;1111;-78
2023/10/08 06:40:59;;;;;;;;;;;;;;;14.82;100.00;102418.75;5047306;28;1894;-77
2023/10/08 06:43:21;;;;;;;;;;;;;;;14.83;100.00;102425.66;5042534;28;1154;-78
2023/10/08 06:45:46;;;;;;;;;;;;;;;14.82;100.00;102434.44;5044108;28;1179;-78
2023/10/08 06:48:18;;;;;;;;;;;;;;;14.82;100.00;102439.66;5047887;28;1195;-77
2023/10/08 06:50:47;;;;;;;;;;;;;;;14.82;100.00;102431.00;5033757;28;1185;-78
2023/10/08 06:53:14;;;;;;;;;;;;;;;14.81;100.00;102438.00;5048586;28;994;-78
2023/10/08 06:55:43;;;;;;;;;;;;;;;14.76;100.00;102440.13;5052537;28;1248;-77
2023/10/08 06:58:09;;;;;;;;;;;;;;;14.72;100.00;102443.88;5049521;28;1105;-78
2023/10/08 07:00:40;;;;;;;;;;;;;;;14.68;100.00;102442.47;5051226;28;1894;-79
2023/10/08 07:03:15;;;;;;;;;;;;;;;14.64;100.00;102446.25;5044196;28;1109;-78
2023/10/08 07:05:40;;;;;;;;;;;;;;;14.59;100.00;102443.13;5049718;28;1208;-78
2023/10/08 07:08:06;;;;;;;;;;;;;;;14.57;100.00;102440.63;5027156;28;1295;-77
2023/10/08 07:10:34;;;;;;;;;;;;;;;14.52;100.00;102452.34;5030342;28;1562;-77
2023/10/08 07:12:59;;;;;;;;;;;;;;;14.39;100.00;102452.34;5031043;28;1343;-77
2023/10/08 07:15:26;;;;;;;;;;;;;;;14.34;100.00;102460.53;5027254;28;1303;-76
2023/10/08 07:17:51;;;;;;;;;;;;;;;14.21;100.00;102464.13;5045888;28;1153;-77
2023/10/08 07:20:16;;;;;;;;;;;;;;;14.11;100.00;102466.56;5029816;28;1961;-78
2023/10/08 07:22:43;;;;;;;;;;;;;;;14.03;100.00;102467.06;5042894;28;1097;-77
2023/10/08 07:25:08;;;;;;;;;;;;;;;13.99;100.00;102470.00;5053180;28;1148;-78
2023/10/08 07:27:37;;;;;;;;;;;;;;;13.97;100.00;102466.69;5027115;28;1222;-78
2023/10/08 07:30:10;;;;;;;;;;;;;;;13.95;100.00;102476.41;5027900;28;1243;-78
2023/10/08 07:32:35;;;;;;;;;;;;;;;13.91;100.00;102477.53;5046938;28;1408;-78
2023/10/08 07:37:44;;;;;;;;;;;;;;;13.89;100.00;102469.00;5040351;28;1138;-78
2023/10/08 07:40:12;;;;;;;;;;;;;;;13.91;100.00;102467.94;5048052;28;1972;-77
2023/10/08 07:42:37;;;;;;;;;;;;;;;13.95;100.00;102463.34;5040991;28;1381;-78
2023/10/08 07:45:04;;;;;;;;;;;;;;;13.93;100.00;102465.22;5048113;28;1351;-77
2023/10/08 07:47:29;;;;;;;;;;;;;;;13.92;100.00;102468.75;5047544;28;1060;-78
2023/10/08 07:49:55;;;;;;;;;;;;;;;13.93;100.00;102475.66;5049756;28;1206;-77
2023/10/08 07:52:20;;;;;;;;;;;;;;;13.90;100.00;102473.28;5046205;28;1171;-77
2023/10/08 07:54:46;;;;;;;;;;;;;;;13.91;100.00;102472.31;5053037;28;1372;-78
2023/10/08 07:57:18;;;;;;;;;;;;;;;13.93;100.00;102484.31;5039151;28;1191;-78
2023/10/08 07:59:46;;;;;;;;;;;;;;;13.94;100.00;102478.16;5054190;28;1969;-79
2023/10/08 08:02:13;;;;;;;;;;;;;;;13.95;100.00;102479.84;5050700;28;1127;-79
2023/10/08 08:04:39;;;;;;;;;;;;;;;13.96;100.00;102481.50;5034907;28;1302;-77
2023/10/08 08:07:06;;;;;;;;;;;;;;;13.98;100.00;102499.63;5041825;28;1469;-78
2023/10/08 08:09:35;;;;;;;;;;;;;;;13.98;100.00;102494.44;5062943;28;1167;-76
2023/10/08 08:12:07;;;;;;;;;;;;;;;14.00;100.00;102496.00;5058824;28;1262;-79
2023/10/08 08:14:32;;;;;;;;;;;;;;;13.97;100.00;102505.81;5070285;28;1067;-78
2023/10/08 08:17:13;;;;;;;;;;;;;;;13.97;100.00;102518.84;5071684;28;1058;-79
2023/10/08 08:19:38;;;;;;;;;;;;;;;13.98;100.00;102528.34;5070856;28;1875;-79
2023/10/08 08:22:03;;;;;;;;;;;;;;;14.00;100.00;102536.91;5071308;28;1106;-77
2023/10/08 08:24:29;;;;;;;;;;;;;;;13.99;100.00;102530.00;5066301;28;1124;-80
2023/10/08 08:27:11;;;;;;;;;;;;;;;13.98;100.00;102537.00;5064922;28;1054;-78
2023/10/08 08:29:46;;;;;;;;;;;;;;;13.98;100.00;102541.38;5069849;28;946;-79
2023/10/08 08:32:21;;;;;;;;;;;;;;;13.99;100.00;102548.25;5049378;28;1407;-80
2023/10/08 08:34:50;;;;;;;;;;;;;;;14.01;100.00;102556.84;5065741;28;1239;-80
2023/10/08 08:37:15;;;;;;;;;;;;;;;14.03;100.00;102550.56;5072418;28;980;-77
2023/10/08 08:39:41;;;;;;;;;;;;;;;14.05;100.00;102547.88;5030667;28;1989;-79
2023/10/08 08:42:07;;;;;;;;;;;;;;;14.01;100.00;102546.41;5047708;28;1134;-77
2023/10/08 08:44:39;;;;;;;;;;;;;;;14.01;100.00;102546.41;5030516;28;1317;-77
2023/10/08 08:47:06;;;;;;;;;;;;;;;14.01;100.00;102556.84;5045685;28;1165;-77
2023/10/08 08:49:39;;;;;;;;;;;;;;;14.00;100.00;102544.75;5049085;28;1124;-77
2023/10/08 08:52:04;;;;;;;;;;;;;;;14.01;100.00;102554.22;5046952;28;1153;-78
2023/10/08 08:54:32;;;;;;;;;;;;;;;14.02;100.00;102553.28;5047809;28;1102;-79
2023/10/08 08:56:59;;;;;;;;;;;;;;;13.99;100.00;102545.66;5048645;28;1099;-77
2023/10/08 08:59:25;;;;;;;;;;;;;;;13.99;100.00;102553.47;5054515;28;1909;-78
2023/10/08 09:01:51;;;;;;;;;;;;;;;14.05;100.00;102559.13;5048624;28;1182;-76
2023/10/08 09:04:17;;;;;;;;;;;;;;;14.02;100.00;102563.72;5033019;28;1469;-77
2023/10/08 09:06:42;;;;;;;;;;;;;;;14.06;100.00;102567.78;5051535;28;1098;-76
2023/10/08 09:09:21;;;;;;;;;;;;;;;13.99;100.00;102571.75;5033435;28;1255;-77
2023/10/08 09:11:47;;;;;;;;;;;;;;;13.97;100.00;102586.69;5050782;28;1077;-79
2023/10/08 09:14:12;;;;;;;;;;;;;;;13.97;100.00;102597.09;5044367;28;1223;-76
2023/10/08 09:16:37;;;;;;;;;;;;;;;13.94;100.00;102582.50;5049443;28;1420;-77
2023/10/08 09:19:02;;;;;;;;;;;;;;;13.95;100.00;102568.53;5051333;28;1870;-78
2023/10/08 09:21:28;;;;;;;;;;;;;;;13.95;100.00;102567.69;5049847;28;987;-77
2023/10/08 09:23:54;;;;;;;;;;;;;;;13.98;100.00;102559.66;5050460;28;1257;-77
2023/10/08 09:26:23;;;;;;;;;;;;;;;14.00;100.00;102565.59;5044992;28;1340;-77
2023/10/08 09:28:49;;;;;;;;;;;;;;;14.01;100.00;102562.88;5047391;28;1141;-78
2023/10/08 09:31:15;;;;;;;;;;;;;;;14.02;100.00;102558.50;5046109;28;1141;-77
2023/10/08 09:33:41;;;;;;;;;;;;;;;14.03;100.00;102560.16;5028679;28;1215;-78
2023/10/08 09:36:10;;;;;;;;;;;;;;;14.04;100.00;102565.28;5032397;28;1392;-77
2023/10/08 09:38:36;;;;;;;;;;;;;;;14.08;100.00;102569.34;5032929;28;1207;-78
2023/10/08 09:41:02;;;;;;;;;;;;;;;14.10;100.00;102558.78;5034824;28;1878;-78
2023/10/08 09:43:28;;;;;;;;;;;;;;;14.13;100.00;102550.78;5030147;28;1211;-77
2023/10/08 09:45:57;;;;;;;;;;;;;;;14.17;100.00;102552.25;5048137;28;1176;-77
2023/10/08 09:48:25;;;;;;;;;;;;;;;14.20;100.00;102541.56;5050180;28;1206;-77
2023/10/08 09:50:51;;;;;;;;;;;;;;;14.18;100.00;102558.28;5034166;28;1470;-78
2023/10/08 09:53:19;;;;;;;;;;;;;;;14.21;100.00;102550.22;5045233;28;1219;-77
2023/10/08 09:55:55;;;;;;;;;;;;;;;14.14;100.00;102556.81;5054366;28;1188;-77
2023/10/08 09:58:22;;;;;;;;;;;;;;;14.07;100.00;102556.41;5047042;28;1290;-77
2023/10/08 10:00:48;;;;;;;;;;;;;;;14.11;100.00;102552.66;5053495;28;1965;-77
2023/10/08 10:03:14;;;;;;;;;;;;;;;14.13;100.00;102544.72;5045510;28;1653;-77
2023/10/08 10:05:40;;;;;;;;;;;;;;;14.11;100.00;102552.66;5054430;28;1098;-77
2023/10/08 10:08:05;;;;;;;;;;;;;;;14.16;100.00;102555.75;5050793;28;1183;-77
2023/10/08 10:10:33;;;;;;;;;;;;;;;14.16;99.56;102555.75;5031816;28;1200;-77
2023/10/08 10:12:59;;;;;;;;;;;;;;;14.17;99.39;102552.25;5045670;28;1219;-78
2023/10/08 10:15:25;;;;;;;;;;;;;;;14.22;98.56;102560.59;5041914;28;1041;-77
2023/10/08 10:17:50;;;;;;;;;;;;;;;14.27;98.97;102562.84;5034997;28;1205;-77
2023/10/08 10:20:16;;;;;;;;;;;;;;;14.28;99.20;102559.31;5047335;28;1968;-77
2023/10/08 10:22:43;;;;;;;;;;;;;;;14.32;98.60;102566.81;5049719;28;1142;-77
2023/10/08 10:25:17;;;;;;;;;;;;;;;14.28;98.22;102562.78;5047571;28;1238;-77
2023/10/08 10:27:55;;;;;;;;;;;;;;;14.30;97.79;102550.44;5044651;28;1098;-79
2023/10/08 10:30:20;;;;;;;;;;;;;;;14.34;97.89;102549.28;5041790;28;1166;-77
2023/10/08 10:32:46;;;;;;;;;;;;;;;14.37;97.96;102552.63;5045220;28;1590;-78
2023/10/08 10:35:18;;;;;;;;;;;;;;;14.43;97.86;102573.06;5048919;28;1106;-77
2023/10/08 10:37:51;;;;;;;;;;;;;;;14.52;97.73;102565.47;5046396;28;1156;-78
2023/10/08 10:40:28;;;;;;;;;;;;;;;14.51;97.08;102565.59;5047071;28;1979;-78
2023/10/08 10:42:55;;;;;;;;;;;;;;;14.53;97.37;102558.47;5039835;28;1132;-78
2023/10/08 10:48:12;;;;;;;;;;;;;;;14.68;97.10;102573.06;5045879;28;1117;-77
2023/10/08 10:50:48;;;;;;;;;;;;;;;14.74;97.40;102570.00;5039798;28;1229;-77
2023/10/08 10:53:13;;;;;;;;;;;;;;;14.72;96.51;102561.41;5030054;28;1397;-78
2023/10/08 10:55:47;;;;;;;;;;;;;;;14.75;96.47;102574.28;5026366;28;1215;-77
2023/10/08 10:58:15;;;;;;;;;;;;;;;14.82;96.69;102574.66;5046667;28;1118;-78
2023/10/08 11:03:16;;;;;;;;;;;;;;;14.92;96.10;102569.63;5045058;28;1263;-78
2023/10/08 11:05:47;;;;;;;;;;;;;;;14.91;96.26;102562.72;5048852;28;1103;-77
2023/10/08 11:08:14;;;;;;;;;;;;;;;14.97;96.36;102562.28;5023998;28;1484;-79
2023/10/08 11:10:51;;;;;;;;;;;;;;;14.98;95.91;102558.72;5034166;28;1385;-77
2023/10/08 11:13:17;;;;;;;;;;;;;;;15.00;94.46;102567.28;5039997;28;1353;-78
2023/10/08 11:15:42;;;;;;;;;;;;;;;15.05;95.05;102559.94;5025825;28;1412;-78
2023/10/08 11:18:09;;;;;;;;;;;;;;;15.01;95.40;102548.88;5044183;28;1151;-77
2023/10/08 11:20:39;;;;;;;;;;;;;;;15.04;95.63;102550.44;5044752;28;1973;-77
2023/10/08 11:23:17;;;;;;;;;;;;;;;15.07;95.50;102537.97;5046989;28;1225;-77
2023/10/08 11:25:52;;;;;;;;;;;;;;;15.14;95.68;102548.81;5050347;28;1216;-78
2023/10/08 11:28:18;;;;;;;;;;;;;;;15.25;95.53;102541.00;5044998;28;1126;-77
2023/10/08 11:30:46;;;;;;;;;;;;;;;15.29;94.74;102547.66;5045952;28;1146;-78
2023/10/08 11:33:15;;;;;;;;;;;;;;;15.20;94.25;102547.53;5032016;28;1438;-78
2023/10/08 11:35:54;;;;;;;;;;;;;;;15.18;94.35;102549.41;5051320;28;1076;-77
2023/10/08 11:38:22;;;;;;;;;;;;;;;15.23;95.13;102544.69;5045990;28;1144;-77
2023/10/08 11:40:55;;;;;;;;;;;;;;;15.28;94.51;102540.78;5048202;28;1973;-77
2023/10/08 11:43:21;;;;;;;;;;;;;;;15.31;95.03;102537.97;5042822;28;1111;-78
2023/10/08 11:45:49;;;;;;;;;;;;;;;15.34;94.98;102539.50;5026104;28;1368;-79
2023/10/08 11:48:21;;;;;;;;;;;;;;;15.36;94.51;102538.41;5028105;28;1273;-77
2023/10/08 11:50:47;;;;;;;;;;;;;;;15.34;94.12;102536.88;5045079;28;1162;-77
2023/10/08 11:53:12;;;;;;;;;;;;;;;15.33;94.50;102537.84;5052615;28;1069;-77
2023/10/08 11:55:42;;;;;;;;;;;;;;;15.32;94.64;102536.19;5050958;28;1187;-77
2023/10/08 11:58:10;;;;;;;;;;;;;;;15.35;94.47;102526.31;5033988;28;1328;-79
2023/10/08 12:00:45;;;;;;;;;;;;;;;15.36;94.64;102527.97;5034672;28;1952;-77
2023/10/08 12:03:11;;;;;;;;;;;;;;;15.36;94.42;102538.41;5048923;28;1174;-77
2023/10/08 12:05:38;;;;;;;;;;;;;;;15.38;94.33;102533.09;5055856;28;1300;-77
2023/10/08 12:08:08;;;;;;;;;;;;;;;15.35;94.12;102530.69;5048248;28;1222;-77
2023/10/08 12:10:34;;;;;;;;;;;;;;;15.37;94.53;102534.88;5039117;28;1268;-77
2023/10/08 12:12:59;;;;;;;;;;;;;;;15.41;94.31;102533.69;5045027;28;1133;-77
2023/10/08 12:15:38;;;;;;;;;;;;;;;15.44;94.25;102531.81;5043685;28;1335;-77
2023/10/08 12:18:15;;;;;;;;;;;;;;;15.50;93.94;102523.50;5027661;28;1367;-78
2023/10/08 12:20:49;;;;;;;;;;;;;;;15.54;93.73;102510.09;5026272;28;1972;-78
2023/10/08 12:23:24;;;;;;;;;;;;;;;15.56;93.52;102502.13;5047128;28;1095;-77
2023/10/08 12:25:51;;;;;;;;;;;;;;;15.60;93.65;102511.41;5048753;28;1063;-77
2023/10/08 12:28:16;;;;;;;;;;;;;;;15.61;92.94;102507.84;5031552;28;1208;-76
2023/10/08 12:30:42;;;;;;;;;;;;;;;15.57;93.02;102498.53;5045406;28;1424;-77
2023/10/08 12:33:12;;;;;;;;;;;;;;;15.57;92.96;102498.53;5047452;28;1510;-77
2023/10/08 12:35:37;;;;;;;;;;;;;;;15.53;93.16;102494.47;5045284;28;1136;-79
2023/10/08 12:38:05;;;;;;;;;;;;;;;15.55;93.37;102495.22;5048508;28;1434;-77
2023/10/08 12:40:41;;;;;;;;;;;;;;;15.59;93.64;102486.16;5030728;28;1906;-77
2023/10/08 12:43:07;;;;;;;;;;;;;;;15.65;93.56;102477.88;5029739;28;1690;-77
2023/10/08 12:45:32;;;;;;;;;;;;;;;15.71;93.48;102474.78;5046130;28;1192;-78
2023/10/08 12:47:58;;;;;;;;;;;;;;;15.75;93.89;102470.16;5045000;28;1187;-78
2023/10/08 12:50:29;;;;;;;;;;;;;;;15.81;93.74;102470.53;5040054;28;1055;-79
2023/10/08 12:52:57;;;;;;;;;;;;;;;15.87;94.09;102474.44;5041408;28;959;-78
2023/10/08 12:55:25;;;;;;;;;;;;;;;15.96;94.06;102467.69;5024299;28;1415;-77
2023/10/08 12:58:05;;;;;;;;;;;;;;;16.03;93.96;102458.38;5049090;28;1427;-78
2023/10/08 13:00:31;;;;;;;;;;;;;;;16.09;93.99;102452.66;5044592;28;1890;-78
2023/10/08 13:02:57;;;;;;;;;;;;;;;16.11;93.25;102450.75;5030892;28;1667;-77
2023/10/08 13:05:28;;;;;;;;;;;;;;;16.15;93.80;102462.66;5054536;28;919;-77
2023/10/08 13:08:03;;;;;;;;;;;;;;;16.16;93.34;102459.06;5053398;28;1102;-78
2023/10/08 13:10:29;;;;;;;;;;;;;;;16.19;93.38;102456.22;5029148;28;1205;-78
2023/10/08 13:12:54;;;;;;;;;;;;;;;16.20;93.54;102456.09;5048063;28;1262;-77
2023/10/08 13:15:19;;;;;;;;;;;;;;;16.17;93.37;102451.13;5049565;28;1467;-77
2023/10/08 13:17:45;;;;;;;;;;;;;;;16.16;92.96;102453.84;5052555;28;1132;-77
2023/10/08 13:20:11;;;;;;;;;;;;;;;16.16;93.38;102444.19;5031204;28;1889;-78
2023/10/08 13:22:37;;;;;;;;;;;;;;;16.19;93.91;102448.38;5048270;28;1444;-78
2023/10/08 13:25:04;;;;;;;;;;;;;;;16.27;93.53;102445.13;5058034;28;1198;-78
2023/10/08 13:27:30;;;;;;;;;;;;;;;16.29;93.44;102444.06;5053302;28;1236;-77
2023/10/08 13:29:55;;;;;;;;;;;;;;;16.32;93.70;102438.56;5055434;28;1129;-77
2023/10/08 13:32:20;;;;;;;;;;;;;;;16.34;93.10;102446.28;5050906;28;1223;-78
2023/10/08 13:34:46;;;;;;;;;;;;;;;16.33;92.90;102440.22;5051602;28;1224;-78
2023/10/08 13:37:11;;;;;;;;;;;;;;;16.31;93.46;102434.28;5056628;28;1153;-77
2023/10/08 13:39:36;;;;;;;;;;;;;;;16.34;93.57;102431.41;5054073;28;1992;-78
2023/10/08 13:42:03;;;;;;;;;;;;;;;16.39;93.38;102421.41;5050666;28;1447;-78
2023/10/08 13:44:30;;;;;;;;;;;;;;;16.41;93.97;102421.31;5051018;28;1138;-77
2023/10/08 13:46:58;;;;;;;;;;;;;;;16.40;93.44;102420.47;5035491;28;1196;-78
2023/10/08 13:49:23;;;;;;;;;;;;;;;16.39;93.67;102413.53;5050794;28;1324;-77
2023/10/08 13:51:55;;;;;;;;;;;;;;;16.39;93.56;102418.78;5051445;28;1450;-77
2023/10/08 13:54:21;;;;;;;;;;;;;;;16.44;93.31;102411.38;5047905;28;1075;-77
2023/10/08 13:56:48;;;;;;;;;;;;;;;16.50;93.76;102420.53;5046280;28;1330;-77
2023/10/08 13:59:13;;;;;;;;;;;;;;;16.52;93.59;102412.56;5048338;28;1951;-78
2023/10/08 14:01:45;;;;;;;;;;;;;;;16.57;93.05;102420.88;5025258;28;1456;-77
2023/10/08 14:04:11;;;;;;;;;;;;;;;16.58;93.11;102412.06;5027301;28;1496;-77
2023/10/08 14:06:37;;;;;;;;;;;;;;;16.60;93.51;102412.78;5051243;28;1320;-78
2023/10/08 14:09:07;;;;;;;;;;;;;;;16.62;93.39;102423.94;5028653;28;1144;-77
2023/10/08 14:11:33;;;;;;;;;;;;;;;16.60;93.26;102431.09;5053374;28;1301;-77
2023/10/08 14:14:07;;;;;;;;;;;;;;;16.62;93.47;102423.94;5034476;28;1230;-78